Airfield :
LOGIN :

Register | Disclaimer

   EN    FR    IT 

 










Legend :    VFR   Marginal VFR   IFR   Intensive IFR   Very Intensive IFR
Visi :
Ceiling :
>= 8 km
>= 3000ft
5 to 8 km
1000 to 3000 ft
1500m to 5 km
500 to 1000 ft
800 to 1500m
200 to 500 ft
< 800m
< 200 ft
Symbols :   Thunderstorms  Fog  Heavy snow  Heavy precipitations  Wind > 20 kt
SIGMETs :     Misc.  Thunderstorms  Icing  Turbulence  Mountain Waves  Volcanic Ashes






- Airport Elevation : 401 ft
- IATA code : LEQ


EGHC - Land's End

CURRENT METAR :
  • 070850Z 24011KT 9999 FEW020 15/13 Q1021

EXPIRED METARs :
  • 070820Z 23013KT 9999 FEW009 14/13 Q1021
  • 070750Z 23013KT 9999 FEW020 14/13 Q1021
  • 070720Z 23013KT 9999 FEW018 14/12 Q1021
  • 070650Z 23011KT 9999 FEW016 14/13 Q1022
  • 070620Z 23011KT 9999 FEW016 14/12 Q1022

TAF TAF EGHC
Valid from the 07 at 09:00 until the 07 at 18:00 UTC


070802Z 0709/0718 23014KT 9999 FEW020
PROB30
TEMPO 0709/0715 25017G27KT
TEMPO 0714/0717 7000 RA SHRA
PROB30
TEMPO 0714/0717 3000 +RA +SHRA BKN014
BECMG 0715/0718 30012KT



MET'MAP, your aeronautical weather chart ! - Copyright ORBIFLY December 2007 - Disclaimer

ORBIFLY MET'MAP TEAM :

Programming & Development : Alexandra Zaïnal
Original concept : Baudouin d'Aumeries
Technical & hardware support : Manuel Goepfert
Assistance : Marc-Olivier Méhu




SOURCES & CREDITS :

   NOAA